Time;durP1;ratioP1;P1;durP2;ratioP2;P2;SDS_P1;SDS_P2;PMS_P1;PMS_P2;Temp;Humidity;BMP_temperature;BMP_pressure;BME280_temperature;BME280_humidity;BME280_pressure;Samples;Min_cycle;Max_cycle;Signal;HPM_P1;HPM_P2
2021/09/30 00:00:45;;;;;;;3.80;3.00;;;20.50;80.10;;;;;;5021418;28;20301;-73
2021/09/30 00:03:13;;;;;;;3.37;3.17;;;20.50;79.90;;;;;;5003485;28;20323;-73
2021/09/30 00:05:41;;;;;;;3.20;2.43;;;20.50;79.70;;;;;;5009858;28;20216;-73
2021/09/30 00:08:09;;;;;;;2.57;2.07;;;20.50;79.70;;;;;;5006355;28;20216;-73
2021/09/30 00:10:37;;;;;;;1.00;1.00;;;20.40;79.60;;;;;;4999375;28;20216;-73
2021/09/30 00:13:20;;;;;;;4.87;2.87;;;20.40;79.60;;;;;;5004308;28;20215;-73
2021/09/30 00:32:37;;;;;;;2.27;2.10;;;20.20;80.00;;;;;;5004045;28;20248;-73
2021/09/30 00:48:35;;;;;;;0.93;0.93;;;19.90;81.10;;;;;;5003141;28;20272;-73
2021/09/30 01:21:08;;;;;;;3.93;3.63;;;19.70;85.90;;;;;;5001400;28;20282;-72
2021/09/30 01:24:23;;;;;;;3.03;2.77;;;19.70;86.60;;;;;;4998890;28;20236;-72
2021/09/30 02:19:07;;;;;;;0.63;0.63;;;19.60;85.00;;;;;;5004778;28;20246;-73
2021/09/30 02:24:26;;;;;;;0.80;0.80;;;19.50;84.90;;;;;;5008410;28;20224;-73
2021/09/30 03:00:11;;;;;;;0.47;0.47;;;19.30;84.00;;;;;;5015781;28;20602;-73
2021/09/30 03:02:41;;;;;;;0.10;0.10;;;19.30;83.90;;;;;;5031085;28;20231;-73
2021/09/30 03:05:10;;;;;;;0.73;0.73;;;19.30;83.90;;;;;;5015016;28;20621;-73
2021/09/30 03:07:38;;;;;;;0.40;0.40;;;19.30;83.90;;;;;;5030806;28;20212;-73
2021/09/30 03:10:06;;;;;;;0.60;0.60;;;19.20;83.90;;;;;;5015652;28;20208;-73
2021/09/30 03:12:36;;;;;;;0.10;0.10;;;19.20;84.00;;;;;;5015286;28;20255;-73
2021/09/30 03:20:33;;;;;;;0.97;0.50;;;18.90;84.60;;;;;;5015188;28;20211;-73
2021/09/30 03:23:05;;;;;;;0.37;0.37;;;18.90;84.90;;;;;;5030867;28;20586;-73
2021/09/30 03:25:33;;;;;;;0.40;0.40;;;18.80;85.00;;;;;;5014502;28;20270;-73
2021/09/30 03:28:01;;;;;;;0.10;0.10;;;18.80;85.20;;;;;;5015583;28;20226;-73
2021/09/30 03:30:29;;;;;;;2.47;1.20;;;18.70;85.30;;;;;;5014807;28;20231;-73
2021/09/30 03:33:01;;;;;;;1.03;1.03;;;18.70;85.30;;;;;;5014971;28;20203;-73
2021/09/30 03:35:28;;;;;;;0.53;0.53;;;18.60;85.50;;;;;;5015617;28;20227;-73
2021/09/30 03:37:55;;;;;;;0.60;0.30;;;18.60;85.70;;;;;;5015361;28;20632;-73
2021/09/30 03:40:22;;;;;;;0.20;0.20;;;18.50;85.80;;;;;;5014729;28;20220;-73
2021/09/30 03:42:49;;;;;;;0.10;0.10;;;18.50;85.90;;;;;;5014745;28;20656;-73
2021/09/30 03:45:16;;;;;;;0.63;0.53;;;18.50;86.00;;;;;;5029965;28;20254;-73
2021/09/30 03:47:43;;;;;;;0.10;0.10;;;18.50;86.10;;;;;;5014456;28;20644;-73
2021/09/30 03:50:16;;;;;;;0.20;0.20;;;18.50;86.20;;;;;;5014897;28;20203;-73
2021/09/30 04:01:01;;;;;;;0.60;0.57;;;18.30;86.20;;;;;;4998043;28;20204;-73
2021/09/30 04:03:28;;;;;;;0.40;0.40;;;18.30;86.20;;;;;;5002797;28;20228;-73
2021/09/30 04:05:55;;;;;;;0.57;0.40;;;18.30;86.30;;;;;;5013531;28;20595;-73
2021/09/30 04:08:22;;;;;;;1.90;1.07;;;18.30;86.30;;;;;;5014533;28;20549;-73
2021/09/30 04:10:49;;;;;;;0.40;0.40;;;18.30;86.40;;;;;;5013928;28;20220;-73
2021/09/30 04:13:16;;;;;;;1.03;1.03;;;18.30;86.40;;;;;;5014243;28;20212;-73
2021/09/30 04:15:43;;;;;;;0.13;0.13;;;18.20;86.20;;;;;;5029186;28;20691;-73
2021/09/30 04:18:11;;;;;;;0.77;0.67;;;18.20;86.30;;;;;;5014122;28;20216;-72
2021/09/30 04:20:38;;;;;;;0.10;0.10;;;18.20;86.30;;;;;;5013887;28;20208;-72
2021/09/30 04:23:04;;;;;;;0.10;0.10;;;18.20;86.30;;;;;;5012816;28;20215;-73
2021/09/30 04:25:32;;;;;;;0.10;0.10;;;18.20;86.90;;;;;;5012660;28;20235;-73
2021/09/30 04:27:59;;;;;;;0.57;0.57;;;18.20;86.30;;;;;;5014017;28;20211;-73
2021/09/30 04:30:26;;;;;;;0.77;0.43;;;18.20;86.30;;;;;;5013539;28;20211;-73
2021/09/30 04:32:53;;;;;;;0.50;0.50;;;18.10;86.30;;;;;;5013733;28;20278;-73
2021/09/30 04:35:20;;;;;;;0.30;0.30;;;18.10;86.40;;;;;;5013564;28;20698;-73
2021/09/30 04:37:47;;;;;;;0.57;0.57;;;18.10;86.60;;;;;;5013672;28;20651;-73
2021/09/30 04:40:15;;;;;;;0.00;0.00;;;18.10;86.30;;;;;;5013531;28;20741;-73
2021/09/30 04:42:42;;;;;;;0.00;0.00;;;18.10;86.30;;;;;;5013468;28;20215;-73
2021/09/30 04:45:09;;;;;;;0.10;0.10;;;18.20;86.30;;;;;;5028237;28;20625;-73
2021/09/30 04:47:36;;;;;;;0.17;0.17;;;18.20;86.20;;;;;;5013055;28;20559;-71
2021/09/30 04:50:04;;;;;;;1.10;0.83;;;18.20;86.10;;;;;;5013865;28;20212;-71
2021/09/30 04:52:31;;;;;;;0.17;0.17;;;18.30;86.20;;;;;;5013392;28;20285;-71
2021/09/30 04:54:58;;;;;;;0.37;0.37;;;18.30;86.10;;;;;;5013618;28;20220;-71
2021/09/30 04:57:24;;;;;;;0.10;0.10;;;18.40;86.10;;;;;;5013222;28;20278;-71
2021/09/30 04:59:51;;;;;;;0.63;0.63;;;18.40;86.00;;;;;;5013064;28;20628;-71
2021/09/30 05:02:18;;;;;;;0.40;0.40;;;18.40;85.90;;;;;;4996707;28;20263;-71
2021/09/30 05:04:46;;;;;;;0.43;0.30;;;18.40;85.80;;;;;;5012481;28;20219;-71
2021/09/30 05:07:12;;;;;;;0.47;0.47;;;18.40;85.80;;;;;;5013267;28;20218;-71
2021/09/30 05:09:39;;;;;;;0.30;0.30;;;18.40;85.80;;;;;;5014130;28;20533;-71
2021/09/30 05:12:08;;;;;;;0.10;0.10;;;18.40;85.90;;;;;;5013196;28;20262;-71
2021/09/30 05:14:35;;;;;;;0.20;0.20;;;18.40;85.80;;;;;;5012601;28;20230;-70
2021/09/30 05:17:02;;;;;;;0.73;0.53;;;18.40;85.90;;;;;;5012896;28;20946;-70
2021/09/30 05:19:29;;;;;;;0.10;0.10;;;18.40;85.90;;;;;;5012223;28;20594;-70
2021/09/30 05:21:56;;;;;;;0.20;0.13;;;18.40;85.90;;;;;;5012039;28;20285;-70
2021/09/30 05:24:23;;;;;;;0.33;0.33;;;18.40;85.80;;;;;;5013064;28;20247;-70
2021/09/30 05:26:50;;;;;;;0.10;0.10;;;18.50;85.80;;;;;;5013108;28;20212;-70
2021/09/30 05:29:17;;;;;;;1.50;0.63;;;18.40;85.80;;;;;;5028866;28;20208;-70
2021/09/30 05:31:44;;;;;;;0.20;0.20;;;18.50;85.80;;;;;;5012628;28;20285;-70
2021/09/30 05:34:11;;;;;;;0.10;0.10;;;18.40;85.80;;;;;;5013293;28;20614;-70
2021/09/30 05:36:38;;;;;;;0.30;0.30;;;18.40;85.80;;;;;;5012761;28;20220;-72
2021/09/30 05:39:05;;;;;;;0.13;0.13;;;18.40;85.90;;;;;;5012360;28;20214;-72
2021/09/30 05:41:32;;;;;;;0.37;0.37;;;18.40;86.00;;;;;;5013176;28;20212;-72
2021/09/30 05:44:07;;;;;;;0.10;0.10;;;18.30;86.00;;;;;;5012745;28;20231;-72
2021/09/30 05:46:41;;;;;;;0.40;0.40;;;18.30;86.10;;;;;;5012088;28;20231;-72
2021/09/30 05:49:10;;;;;;;0.10;0.10;;;18.40;86.10;;;;;;5011713;28;20705;-72
2021/09/30 05:51:38;;;;;;;0.33;0.33;;;18.40;86.10;;;;;;5012394;28;20216;-72
2021/09/30 05:54:05;;;;;;;0.53;0.53;;;18.40;86.10;;;;;;5012808;28;20261;-72
2021/09/30 05:56:32;;;;;;;0.03;0.03;;;18.50;86.20;;;;;;5014549;28;20215;-72
2021/09/30 05:58:59;;;;;;;0.10;0.10;;;18.40;86.10;;;;;;5016067;28;20215;-72
2021/09/30 06:12:15;;;;;;;1.60;0.77;;;18.60;86.00;;;;;;5016464;28;20745;-72
2021/09/30 06:14:45;;;;;;;0.10;0.10;;;18.60;86.00;;;;;;5016664;28;20250;-72
2021/09/30 06:17:12;;;;;;;0.10;0.10;;;18.70;86.50;;;;;;5015219;28;20226;-72
2021/09/30 06:19:39;;;;;;;0.30;0.30;;;18.70;85.80;;;;;;5016610;28;20290;-72
2021/09/30 06:22:07;;;;;;;0.10;0.10;;;18.80;85.50;;;;;;5016288;28;20212;-72
2021/09/30 06:24:34;;;;;;;0.10;0.10;;;18.80;85.40;;;;;;5031817;28;20243;-72
2021/09/30 06:27:04;;;;;;;0.27;0.27;;;18.90;85.20;;;;;;5016495;28;20211;-73
2021/09/30 06:29:32;;;;;;;0.20;0.20;;;19.00;84.90;;;;;;5016207;28;20211;-74
2021/09/30 06:31:59;;;;;;;0.10;0.10;;;19.10;85.20;;;;;;5015664;28;20262;-73
2021/09/30 06:34:26;;;;;;;0.10;0.10;;;19.20;84.20;;;;;;5016158;28;20242;-73
2021/09/30 06:36:53;;;;;;;0.23;0.23;;;19.20;83.90;;;;;;5015864;28;20204;-73
2021/09/30 06:39:20;;;;;;;0.37;0.37;;;19.40;83.60;;;;;;5015448;28;20558;-73
2021/09/30 06:41:47;;;;;;;0.10;0.10;;;19.40;83.10;;;;;;5015817;28;20282;-73
2021/09/30 06:44:17;;;;;;;0.00;0.00;;;19.50;82.60;;;;;;5016880;28;20270;-73
2021/09/30 06:46:44;;;;;;;1.03;1.00;;;19.50;82.20;;;;;;5016364;28;20226;-73
2021/09/30 06:49:11;;;;;;;0.10;0.10;;;19.50;82.20;;;;;;5034639;28;20251;-73
2021/09/30 06:51:38;;;;;;;0.10;0.10;;;19.50;82.20;;;;;;5035656;28;20233;-73
2021/09/30 06:54:05;;;;;;;0.20;0.20;;;19.60;82.10;;;;;;5035864;28;20207;-73
2021/09/30 06:56:32;;;;;;;0.00;0.00;;;19.60;81.60;;;;;;5035497;28;20527;-73
2021/09/30 06:59:06;;;;;;;0.10;0.10;;;19.60;81.50;;;;;;5034613;28;20662;-73
2021/09/30 07:01:35;;;;;;;1.30;1.20;;;19.70;81.20;;;;;;5035357;28;20211;-74
2021/09/30 07:04:06;;;;;;;0.30;0.30;;;19.80;81.60;;;;;;5021878;28;20666;-73
2021/09/30 07:06:34;;;;;;;0.20;0.20;;;19.90;80.50;;;;;;5015643;28;20215;-73
2021/09/30 07:09:01;;;;;;;0.00;0.00;;;19.80;79.90;;;;;;5014033;28;20224;-73
2021/09/30 07:11:28;;;;;;;0.00;0.00;;;19.80;79.40;;;;;;5014428;28;20254;-73
2021/09/30 07:13:55;;;;;;;0.10;0.10;;;19.70;79.40;;;;;;5015664;28;20208;-73
2021/09/30 07:16:22;;;;;;;1.50;0.37;;;19.70;79.80;;;;;;5014384;28;20212;-73
2021/09/30 07:18:50;;;;;;;0.20;0.20;;;19.80;79.50;;;;;;5015413;28;20215;-73
2021/09/30 07:21:18;;;;;;;0.10;0.10;;;19.90;79.90;;;;;;5015215;28;20234;-73
2021/09/30 07:23:45;;;;;;;0.00;0.00;;;20.00;79.20;;;;;;5015510;28;20211;-73
2021/09/30 07:26:13;;;;;;;0.00;0.00;;;20.30;79.20;;;;;;5015069;28;20227;-73
2021/09/30 07:28:40;;;;;;;0.10;0.10;;;20.50;78.30;;;;;;5015493;28;20211;-73
2021/09/30 07:31:08;;;;;;;0.20;0.20;;;20.70;78.10;;;;;;5014324;28;20258;-73
2021/09/30 07:33:35;;;;;;;0.10;0.10;;;20.80;77.30;;;;;;5015309;28;20235;-73
2021/09/30 07:36:03;;;;;;;0.20;0.20;;;20.80;76.80;;;;;;5014797;28;20777;-73
2021/09/30 07:38:30;;;;;;;0.67;0.67;;;20.70;76.50;;;;;;5030595;28;20293;-73
2021/09/30 07:40:58;;;;;;;0.70;0.70;;;20.70;76.40;;;;;;5014814;28;20301;-73
2021/09/30 07:43:25;;;;;;;0.30;0.30;;;20.50;76.20;;;;;;5014234;28;20306;-73
2021/09/30 07:45:52;;;;;;;0.10;0.10;;;20.50;76.70;;;;;;5014498;28;20250;-73
2021/09/30 07:48:19;;;;;;;0.00;0.00;;;20.40;76.80;;;;;;5013702;28;20235;-73
2021/09/30 07:50:47;;;;;;;0.27;0.27;;;20.50;77.00;;;;;;5013592;28;20208;-73
2021/09/30 07:53:14;;;;;;;0.10;0.10;;;20.50;77.10;;;;;;5014565;28;20694;-73
2021/09/30 07:55:43;;;;;;;1.07;0.53;;;20.50;77.10;;;;;;5029994;28;20219;-73
2021/09/30 07:58:10;;;;;;;0.10;0.10;;;20.60;77.40;;;;;;5015193;28;20234;-73
2021/09/30 08:00:39;;;;;;;0.60;0.60;;;20.70;77.20;;;;;;5014429;28;20574;-73
2021/09/30 08:03:07;;;;;;;0.10;0.10;;;20.70;77.20;;;;;;5014972;28;20270;-73
2021/09/30 08:05:35;;;;;;;0.13;0.13;;;20.70;76.80;;;;;;5014328;28;20255;-73
2021/09/30 08:08:06;;;;;;;1.07;0.87;;;20.80;76.80;;;;;;5014421;28;20204;-73
2021/09/30 08:10:34;;;;;;;0.10;0.10;;;20.90;76.80;;;;;;5001618;28;20235;-73
2021/09/30 08:13:02;;;;;;;1.73;0.40;;;21.00;76.50;;;;;;5007813;28;20647;-73
2021/09/30 08:15:30;;;;;;;0.00;0.00;;;21.20;76.20;;;;;;5029891;28;20679;-73
2021/09/30 08:17:57;;;;;;;0.30;0.30;;;21.20;75.70;;;;;;5030360;28;20247;-73
2021/09/30 08:20:25;;;;;;;0.30;0.30;;;21.20;75.70;;;;;;5029577;28;20223;-73
2021/09/30 08:22:55;;;;;;;0.00;0.00;;;21.30;75.20;;;;;;5014620;28;20227;-73
2021/09/30 08:25:23;;;;;;;0.10;0.10;;;21.30;74.90;;;;;;5013023;28;20235;-73
2021/09/30 08:27:50;;;;;;;0.10;0.10;;;21.30;75.00;;;;;;5014455;28;20216;-73
2021/09/30 08:30:18;;;;;;;0.20;0.20;;;21.30;74.90;;;;;;5014794;28;20262;-73
2021/09/30 08:32:45;;;;;;;0.10;0.10;;;21.30;75.00;;;;;;5014551;28;20218;-73
2021/09/30 08:35:12;;;;;;;5.50;0.73;;;21.30;74.40;;;;;;5014416;28;20258;-73
2021/09/30 08:37:40;;;;;;;0.00;0.00;;;21.40;74.40;;;;;;5012917;28;20215;-73
2021/09/30 08:40:08;;;;;;;0.00;0.00;;;21.50;73.60;;;;;;5002750;28;20212;-73
2021/09/30 08:42:36;;;;;;;1.53;0.77;;;21.50;73.10;;;;;;5007972;28;20238;-72
2021/09/30 08:45:05;;;;;;;0.10;0.10;;;21.60;73.40;;;;;;5002562;28;20375;-73
2021/09/30 08:47:34;;;;;;;0.10;0.10;;;21.80;73.10;;;;;;5005048;28;20215;-73
2021/09/30 08:50:03;;;;;;;0.20;0.20;;;21.80;72.50;;;;;;5000270;28;20294;-73
2021/09/30 08:52:30;;;;;;;0.03;0.03;;;21.80;72.30;;;;;;5004852;28;20243;-73
2021/09/30 08:54:57;;;;;;;0.00;0.00;;;21.80;72.40;;;;;;5002775;28;20251;-73
2021/09/30 08:57:25;;;;;;;0.20;0.20;;;21.90;72.60;;;;;;5003200;28;20234;-73
2021/09/30 09:00:09;;;;;;;0.03;0.03;;;22.00;71.90;;;;;;5001439;28;20264;-73
2021/09/30 09:02:48;;;;;;;0.20;0.20;;;22.00;71.90;;;;;;5003324;28;20216;-73
2021/09/30 09:05:15;;;;;;;0.10;0.10;;;22.30;71.50;;;;;;5003403;28;20247;-73
2021/09/30 09:07:59;;;;;;;0.20;0.20;;;22.70;70.60;;;;;;5002008;28;20220;-73
2021/09/30 09:10:32;;;;;;;0.20;0.20;;;23.00;69.40;;;;;;5004768;28;20208;-73
2021/09/30 09:13:12;;;;;;;0.10;0.10;;;23.40;68.80;;;;;;5002681;28;20226;-73
2021/09/30 09:15:54;;;;;;;0.00;0.00;;;23.70;67.60;;;;;;5017024;28;20227;-73
2021/09/30 09:18:33;;;;;;;1.37;0.67;;;24.00;66.00;;;;;;5013740;28;20223;-73
2021/09/30 09:21:20;;;;;;;0.20;0.20;;;24.20;65.40;;;;;;5002686;28;20299;-72
2021/09/30 09:23:54;;;;;;;0.10;0.10;;;24.40;64.40;;;;;;5003249;28;20234;-72
2021/09/30 09:26:39;;;;;;;0.03;0.03;;;24.40;63.50;;;;;;5002986;28;20247;-72
2021/09/30 09:29:09;;;;;;;1.80;0.83;;;24.40;63.60;;;;;;4993669;28;20247;-72
2021/09/30 09:31:42;;;;;;;0.57;0.57;;;24.60;63.30;;;;;;4992874;28;20212;-72
2021/09/30 09:34:35;;;;;;;0.77;0.63;;;24.80;62.20;;;;;;5008610;28;20208;-72
2021/09/30 09:40:20;;;;;;;0.10;0.10;;;24.70;62.50;;;;;;5002447;28;20212;-72
2021/09/30 09:42:48;;;;;;;0.00;0.00;;;24.60;62.40;;;;;;5001779;28;20208;-72
2021/09/30 09:45:16;;;;;;;0.17;0.17;;;24.70;63.20;;;;;;5001449;28;20688;-72
2021/09/30 09:47:44;;;;;;;0.10;0.10;;;24.90;63.50;;;;;;5022220;28;20219;-72
2021/09/30 09:50:16;;;;;;;0.47;0.47;;;25.00;61.70;;;;;;5004070;28;20222;-71
2021/09/30 09:52:53;;;;;;;0.13;0.13;;;25.10;62.20;;;;;;5017686;28;20711;-72
2021/09/30 09:55:35;;;;;;;0.10;0.10;;;25.20;61.50;;;;;;5014824;23;20200;-82
2021/09/30 09:58:17;;;;;;;0.10;0.10;;;25.30;60.90;;;;;;5015160;28;20639;-82
2021/09/30 10:01:05;;;;;;;0.10;0.10;;;25.30;59.90;;;;;;5012791;28;20222;-83
2021/09/30 10:03:32;;;;;;;0.10;0.10;;;25.40;60.40;;;;;;5017624;28;20635;-82
2021/09/30 10:06:03;;;;;;;0.10;0.10;;;25.50;60.80;;;;;;5001466;28;20235;-83
2021/09/30 10:08:32;;;;;;;0.00;0.00;;;25.50;61.00;;;;;;5032997;28;20226;-82
2021/09/30 10:11:00;;;;;;;0.10;0.10;;;25.60;60.50;;;;;;5032540;28;20650;-83
2021/09/30 10:13:28;;;;;;;0.50;0.50;;;25.70;59.90;;;;;;5013516;28;20207;-84
2021/09/30 10:15:55;;;;;;;0.20;0.20;;;25.60;59.80;;;;;;5005015;28;20212;-84
2021/09/30 10:18:25;;;;;;;1.13;0.57;;;25.40;59.90;;;;;;5024986;28;20251;-83
2021/09/30 10:20:55;;;;;;;0.10;0.10;;;25.30;60.10;;;;;;5015121;28;20196;-84
2021/09/30 10:23:25;;;;;;;0.30;0.30;;;25.20;60.30;;;;;;4999725;28;20227;-83
2021/09/30 10:25:56;;;;;;;0.10;0.10;;;25.10;60.90;;;;;;5033271;28;20228;-83
2021/09/30 10:28:25;;;;;;;0.10;0.10;;;25.00;60.90;;;;;;5019976;28;20212;-84
2021/09/30 10:30:54;;;;;;;0.17;0.17;;;24.80;61.30;;;;;;5014926;28;20212;-83
2021/09/30 10:33:41;;;;;;;0.20;0.20;;;24.70;61.20;;;;;;5034496;28;20546;-82
2021/09/30 10:36:30;;;;;;;0.00;0.00;;;24.60;61.50;;;;;;5031055;28;20566;-82
2021/09/30 10:39:23;;;;;;;0.43;0.43;;;24.80;61.60;;;;;;4998337;28;20211;-83
2021/09/30 10:42:04;;;;;;;0.47;0.47;;;25.00;60.50;;;;;;5013538;28;20201;-83
2021/09/30 10:44:35;;;;;;;0.10;0.10;;;25.10;60.70;;;;;;5014337;28;20242;-83
2021/09/30 10:47:08;;;;;;;0.10;0.10;;;25.10;60.60;;;;;;5035875;28;20250;-83
2021/09/30 10:49:42;;;;;;;0.43;0.43;;;25.10;60.80;;;;;;5034670;28;20216;-84
2021/09/30 10:52:27;;;;;;;0.70;0.70;;;25.10;61.40;;;;;;5028071;28;20208;-83
2021/09/30 10:55:14;;;;;;;0.40;0.20;;;25.00;61.00;;;;;;5016681;28;20655;-83
2021/09/30 10:57:56;;;;;;;0.00;0.00;;;25.10;60.80;;;;;;5002486;28;20308;-85
2021/09/30 11:00:23;;;;;;;0.30;0.30;;;25.00;60.90;;;;;;5020708;28;20209;-83
2021/09/30 11:03:05;;;;;;;0.10;0.10;;;24.90;60.50;;;;;;5037402;28;20298;-83
2021/09/30 11:05:35;;;;;;;0.20;0.20;;;24.80;61.30;;;;;;5036477;28;20236;-83
2021/09/30 11:08:21;;;;;;;0.40;0.40;;;24.70;61.10;;;;;;5018843;28;20242;-83
2021/09/30 11:11:06;;;;;;;0.50;0.50;;;24.70;61.30;;;;;;5014345;28;20216;-83
2021/09/30 11:13:47;;;;;;;0.37;0.30;;;24.70;61.30;;;;;;5021673;28;20275;-83
2021/09/30 11:16:20;;;;;;;0.10;0.10;;;24.60;61.70;;;;;;5016331;28;20230;-83
2021/09/30 11:18:52;;;;;;;0.30;0.30;;;24.60;61.50;;;;;;5036015;28;20315;-83
2021/09/30 11:21:46;;;;;;;0.30;0.30;;;24.50;61.10;;;;;;5015433;28;20228;-84
2021/09/30 11:24:19;;;;;;;0.83;0.83;;;24.50;61.70;;;;;;5003885;28;20220;-83
2021/09/30 11:26:53;;;;;;;0.20;0.20;;;24.80;61.60;;;;;;5035817;28;20288;-83
2021/09/30 11:29:20;;;;;;;0.10;0.10;;;25.20;60.50;;;;;;5016484;28;20192;-84
2021/09/30 11:31:58;;;;;;;0.30;0.30;;;25.50;59.60;;;;;;5029806;28;20215;-83
2021/09/30 11:34:29;;;;;;;0.13;0.13;;;25.90;59.40;;;;;;5037109;28;20648;-84
2021/09/30 11:37:00;;;;;;;0.67;0.30;;;26.10;57.10;;;;;;5036688;28;20224;-86
2021/09/30 11:39:34;;;;;;;2.20;0.63;;;26.20;57.50;;;;;;5018712;28;20216;-84
2021/09/30 11:42:02;;;;;;;0.73;0.73;;;26.30;57.20;;;;;;5023480;28;20211;-84
2021/09/30 11:44:29;;;;;;;4.43;0.63;;;26.30;56.50;;;;;;5030795;28;20215;-84
2021/09/30 11:46:59;;;;;;;0.37;0.37;;;26.30;57.50;;;;;;5030567;28;20719;-83
2021/09/30 11:49:38;;;;;;;1.03;0.93;;;26.50;57.10;;;;;;5006161;28;20535;-84
2021/09/30 11:52:12;;;;;;;0.63;0.63;;;26.70;55.80;;;;;;5004461;28;20223;-82
2021/09/30 11:54:43;;;;;;;1.20;0.60;;;26.80;56.20;;;;;;5031349;28;20532;-85
2021/09/30 11:57:18;;;;;;;0.53;0.53;;;26.90;55.70;;;;;;5014649;28;20236;-85
2021/09/30 11:59:46;;;;;;;0.40;0.40;;;26.90;55.30;;;;;;5033775;28;20711;-83
2021/09/30 12:02:13;;;;;;;0.30;0.30;;;26.90;55.50;;;;;;5027894;28;20660;-83
2021/09/30 12:04:47;;;;;;;0.73;0.73;;;27.00;55.10;;;;;;5001637;28;20216;-83
2021/09/30 12:07:20;;;;;;;0.93;0.80;;;27.10;54.40;;;;;;5035231;28;20224;-84
2021/09/30 12:09:49;;;;;;;0.83;0.43;;;27.10;54.70;;;;;;5034850;28;20212;-84
2021/09/30 12:12:17;;;;;;;0.53;0.40;;;27.00;54.80;;;;;;5030996;28;20208;-84
2021/09/30 12:14:49;;;;;;;0.30;0.30;;;26.90;54.10;;;;;;5011470;28;20223;-83
2021/09/30 12:17:17;;;;;;;0.70;0.70;;;26.70;54.40;;;;;;5019696;28;20242;-83
2021/09/30 12:19:48;;;;;;;0.10;0.10;;;26.70;54.70;;;;;;5007639;28;20215;-86
2021/09/30 12:22:19;;;;;;;0.30;0.30;;;26.70;54.00;;;;;;5014902;28;20651;-84
2021/09/30 12:24:51;;;;;;;2.43;1.90;;;26.70;53.70;;;;;;5014609;28;20244;-84
2021/09/30 12:27:19;;;;;;;0.30;0.30;;;26.70;53.80;;;;;;5022227;28;20287;-84
2021/09/30 12:29:49;;;;;;;0.93;0.93;;;26.70;54.50;;;;;;5006719;28;20235;-84
2021/09/30 12:32:26;;;;;;;0.10;0.10;;;26.60;53.80;;;;;;4999034;28;20529;-84
2021/09/30 12:35:00;;;;;;;1.17;1.03;;;26.40;54.20;;;;;;5015291;28;20220;-83
2021/09/30 12:37:33;;;;;;;0.50;0.50;;;26.40;54.80;;;;;;5018451;28;20212;-83
2021/09/30 12:40:15;;;;;;;0.47;0.47;;;26.50;53.80;;;;;;5018415;28;20230;-83
2021/09/30 12:43:16;;;;;;;0.30;0.30;;;26.50;53.80;;;;;;5002261;28;20227;-84
2021/09/30 12:45:46;;;;;;;0.57;0.57;;;26.50;54.00;;;;;;4986458;28;20774;-84
2021/09/30 12:48:16;;;;;;;0.63;0.63;;;26.50;54.30;;;;;;5012745;28;20244;-84
2021/09/30 12:50:44;;;;;;;0.97;0.87;;;26.50;54.20;;;;;;5029485;28;20212;-83
2021/09/30 12:53:14;;;;;;;0.30;0.30;;;26.60;53.50;;;;;;4999462;28;20217;-84
2021/09/30 12:55:42;;;;;;;0.50;0.50;;;26.60;54.00;;;;;;5006609;28;20236;-84
2021/09/30 12:58:30;;;;;;;0.40;0.40;;;26.70;53.90;;;;;;5027698;28;20223;-84
2021/09/30 13:01:18;;;;;;;0.27;0.27;;;26.70;53.40;;;;;;5019771;28;20221;-83
2021/09/30 13:04:04;;;;;;;0.20;0.20;;;26.80;53.10;;;;;;5033529;28;20273;-85
2021/09/30 13:06:33;;;;;;;0.10;0.10;;;26.80;53.00;;;;;;5027784;28;20580;-84
2021/09/30 13:09:00;;;;;;;0.60;0.60;;;26.60;53.00;;;;;;5033495;28;20219;-85
2021/09/30 13:11:32;;;;;;;0.37;0.13;;;26.40;53.80;;;;;;5007446;28;20558;-83
2021/09/30 13:14:20;;;;;;;7.03;0.77;;;26.50;54.00;;;;;;5023805;28;20643;-83
2021/09/30 13:16:53;;;;;;;0.30;0.30;;;26.60;53.80;;;;;;5034632;28;20222;-83
2021/09/30 13:19:38;;;;;;;0.20;0.20;;;26.60;52.80;;;;;;5034701;28;20204;-83
2021/09/30 13:22:11;;;;;;;0.40;0.40;;;26.40;53.10;;;;;;4998614;28;20197;-82
2021/09/30 13:24:40;;;;;;;0.47;0.40;;;26.10;54.00;;;;;;5000920;28;20209;-84
2021/09/30 13:27:09;;;;;;;0.33;0.33;;;25.90;54.30;;;;;;5016654;28;20236;-83
2021/09/30 13:29:43;;;;;;;0.17;0.17;;;25.80;54.60;;;;;;5012215;28;20285;-83
2021/09/30 13:32:12;;;;;;;7.03;0.60;;;25.80;54.80;;;;;;5023154;28;20216;-84
2021/09/30 13:34:39;;;;;;;1.80;1.37;;;25.80;54.80;;;;;;5020844;28;20222;-84
2021/09/30 13:37:06;;;;;;;0.40;0.40;;;25.80;55.00;;;;;;5010308;28;20220;-83
2021/09/30 13:39:33;;;;;;;0.13;0.13;;;25.90;55.20;;;;;;5011043;28;20234;-83
2021/09/30 13:42:01;;;;;;;0.47;0.33;;;26.10;54.60;;;;;;5024661;28;20207;-83
2021/09/30 13:44:28;;;;;;;0.20;0.20;;;26.20;53.80;;;;;;5018524;28;20218;-83
2021/09/30 13:46:55;;;;;;;0.20;0.20;;;26.20;54.30;;;;;;5025039;28;20667;-83
2021/09/30 13:49:22;;;;;;;0.20;0.20;;;26.20;53.90;;;;;;5005404;28;20213;-83
2021/09/30 13:51:49;;;;;;;0.20;0.20;;;26.20;54.20;;;;;;4991171;28;20216;-83
2021/09/30 13:54:17;;;;;;;0.30;0.30;;;26.20;53.70;;;;;;4984280;28;20227;-83
2021/09/30 13:56:44;;;;;;;0.50;0.50;;;26.20;53.50;;;;;;5004745;28;20617;-84
2021/09/30 13:59:12;;;;;;;0.53;0.43;;;26.10;53.90;;;;;;5005865;28;20667;-83
2021/09/30 14:01:59;;;;;;;0.57;0.57;;;26.10;54.20;;;;;;4987964;28;20345;-84
2021/09/30 14:04:27;;;;;;;0.37;0.37;;;26.10;53.50;;;;;;4994500;28;20286;-83
2021/09/30 14:06:55;;;;;;;1.00;0.53;;;26.00;54.10;;;;;;4987756;28;20229;-83
2021/09/30 14:09:24;;;;;;;0.30;0.30;;;25.90;53.30;;;;;;4978863;28;20550;-84
2021/09/30 14:11:52;;;;;;;0.97;0.47;;;25.90;53.70;;;;;;4978967;28;20224;-84
2021/09/30 14:14:20;;;;;;;0.20;0.20;;;25.80;54.10;;;;;;4978391;28;20629;-84
2021/09/30 14:16:49;;;;;;;0.30;0.30;;;25.80;54.30;;;;;;4994110;28;20295;-84
2021/09/30 14:19:17;;;;;;;0.20;0.20;;;25.80;54.60;;;;;;5017981;28;20220;-83
2021/09/30 14:21:45;;;;;;;2.53;0.40;;;25.80;54.70;;;;;;4982581;28;20279;-83
2021/09/30 14:24:13;;;;;;;1.90;0.73;;;25.80;54.80;;;;;;4982326;28;20209;-84
2021/09/30 14:26:40;;;;;;;0.20;0.20;;;25.80;55.30;;;;;;4993594;28;20258;-83
2021/09/30 14:29:10;;;;;;;0.47;0.47;;;25.70;55.00;;;;;;5001605;28;20219;-84
2021/09/30 14:31:37;;;;;;;1.83;0.80;;;25.60;55.60;;;;;;5001931;28;20629;-82
2021/09/30 14:34:05;;;;;;;0.70;0.70;;;25.50;56.00;;;;;;4996910;28;20230;-84
2021/09/30 14:36:32;;;;;;;1.57;1.47;;;25.40;56.80;;;;;;4986064;28;20312;-83
2021/09/30 14:39:00;;;;;;;0.00;0.00;;;25.30;57.20;;;;;;4982034;28;20201;-84
2021/09/30 14:41:27;;;;;;;0.50;0.50;;;25.30;57.50;;;;;;4983919;28;20228;-84
2021/09/30 14:43:54;;;;;;;0.20;0.20;;;25.30;57.80;;;;;;5011412;28;20235;-83
2021/09/30 14:46:21;;;;;;;2.03;0.40;;;25.30;58.10;;;;;;4995194;28;20283;-82
2021/09/30 14:48:49;;;;;;;0.73;0.20;;;25.20;58.30;;;;;;4983073;28;20212;-84
2021/09/30 14:51:17;;;;;;;1.60;1.40;;;25.20;58.30;;;;;;4981396;28;20220;-83
2021/09/30 14:53:44;;;;;;;0.20;0.20;;;25.10;58.60;;;;;;4981351;28;20398;-84
2021/09/30 14:56:11;;;;;;;0.30;0.30;;;25.00;58.50;;;;;;4979724;28;20245;-84
2021/09/30 14:58:38;;;;;;;3.57;1.27;;;25.00;58.80;;;;;;4989334;28;20227;-83
2021/09/30 15:01:08;;;;;;;0.60;0.60;;;24.90;58.80;;;;;;4981995;28;20213;-82
2021/09/30 15:03:35;;;;;;;0.27;0.27;;;24.90;58.90;;;;;;5006449;28;20215;-85
2021/09/30 15:06:09;;;;;;;0.50;0.50;;;24.90;58.80;;;;;;5001899;28;20231;-84
2021/09/30 15:08:36;;;;;;;0.27;0.27;;;24.90;58.90;;;;;;5002202;28;20239;-83
2021/09/30 15:11:04;;;;;;;1.70;0.30;;;24.90;58.70;;;;;;4996626;28;20212;-83
2021/09/30 15:13:31;;;;;;;0.57;0.57;;;24.90;58.70;;;;;;5000220;28;20228;-83
2021/09/30 15:16:00;;;;;;;0.20;0.20;;;24.90;58.90;;;;;;5000571;28;20216;-83
2021/09/30 15:18:39;;;;;;;0.23;0.10;;;24.80;58.60;;;;;;5000509;28;20231;-83
2021/09/30 15:21:25;;;;;;;2.40;0.67;;;24.80;58.60;;;;;;4984763;28;20208;-84
2021/09/30 15:23:57;;;;;;;0.20;0.20;;;24.70;58.70;;;;;;4987932;28;20220;-84
2021/09/30 15:26:25;;;;;;;0.20;0.20;;;24.60;58.90;;;;;;4981135;28;20568;-84
2021/09/30 15:28:56;;;;;;;0.20;0.20;;;24.70;59.10;;;;;;4988917;28;20212;-83
2021/09/30 15:31:25;;;;;;;0.30;0.30;;;24.60;59.10;;;;;;4994795;28;20227;-85
2021/09/30 15:33:53;;;;;;;2.40;2.30;;;24.60;59.30;;;;;;5011885;28;20208;-84
2021/09/30 15:36:23;;;;;;;0.27;0.27;;;24.50;59.20;;;;;;5002060;28;20868;-84
2021/09/30 15:38:51;;;;;;;0.37;0.30;;;24.50;59.20;;;;;;5008009;28;20548;-84
2021/09/30 15:41:18;;;;;;;3.83;1.17;;;24.50;59.20;;;;;;4996163;28;20241;-84
2021/09/30 15:43:46;;;;;;;0.20;0.13;;;24.40;59.20;;;;;;4979966;28;20220;-83
2021/09/30 15:46:14;;;;;;;0.47;0.10;;;24.30;59.40;;;;;;4979443;28;20214;-83
2021/09/30 15:48:42;;;;;;;1.70;0.63;;;24.30;59.60;;;;;;4980689;28;20225;-84
2021/09/30 15:51:10;;;;;;;0.10;0.10;;;24.20;59.40;;;;;;4980409;28;20213;-84
2021/09/30 15:53:39;;;;;;;0.83;0.83;;;24.10;59.70;;;;;;4979845;28;20313;-83
2021/09/30 15:56:07;;;;;;;0.50;0.50;;;24.10;60.00;;;;;;4980548;28;20241;-83
2021/09/30 15:58:34;;;;;;;0.07;0.07;;;24.10;60.30;;;;;;4980541;28;20296;-83
2021/09/30 16:01:03;;;;;;;0.27;0.27;;;24.00;60.50;;;;;;4979617;28;20264;-83